Weather at Vencerámica Tejerías Heliport

Public forecast

Using degrees Celsius for public forecast. Weather courtesy of forecast.io.

Closest aviation weather report (METAR) to Vencerámica Tejerías Heliport

Closest report is Oscar Machado Zuluaga Airport, 20.8 nm (38.6 km) E.

2023/03/24 19:03 (retrieved 19 minutes ago)

SVCS 241903Z AUTO 11008KT NCD 28/15 Q1016

Closest aviation forecast (TAF) to Vencerámica Tejerías Heliport

Forecast is more than 12 hours old.

Closest forecast is Simón Bolívar International Airport, 23.5 nm (43.5 km) NNE.

2023/03/23 06:19 (retrieved 2 days ago)

TAF SVMI 230400Z 2306/2406 00000KT 9999 SCT016 TX33/2318Z TN21/2307Z TEMPO 2309/2313 00000KT 9999 SCT016 BKN080